Flight Track Log - Related Links

Times and Time Zones

All times are in EDT time to prevent confusion due to time zone crossing. See the UAL407 flight status page for this flight to view local times or setup timezone preferences in your user account.

Time Position Orientation Groundspeed Altitude Reporting Facility
EDT Latitude Longitude Course Direction KTS MPH feet Rate Location/Type
03:54PM 40.6500 -74.1833 287° West 175 201 2,000  Level New York TRACON
03:55PM 40.6000 -74.2167 207° Southwest 266 306 5,100 3,086 Climbing New York TRACON
03:56PM 40.7695 -74.5156 284° West  Level FlightAware Approximate
03:57PM 40.7920 -74.6391 284° West  Level FlightAware Approximate
03:57PM 40.6306 -74.4106 282° West 308 354 11,000  Level New York Center
03:58PM 40.8180 -74.7613 287° West  Level FlightAware Approximate
03:58PM 40.6672 -74.5056 297° West 315 362 13,400  Level New York Center
03:59PM 40.8461 -74.8828 287° West  Level FlightAware Approximate
03:59PM 40.7192 -74.6344 298° West 345 397 16,300  Level New York Center
04:00PM 40.7633 -74.7492 297° West 380 437 17,000 836 Climbing New York Center
04:01PM 40.8186 -74.8978 296° West 400 460 18,000 1,897 Climbing New York Center
04:02PM 40.8664 -75.0242 297° West 400 460 20,700 2,695 Climbing New York Center
04:03PM 40.8881 -75.1683 281° West 395 455 23,300 2,380 Climbing New York Center
04:04PM 40.8558 -75.3061 253° West 395 455 25,500 2,050 Climbing New York Center
04:05PM 40.8250 -75.4547 255° West 413 475 27,400 1,664 Climbing New York Center
04:06PM 40.7936 -75.6144 255° West 432 497 28,800 1,800 Climbing New York Center
04:07PM 40.7619 -75.7739 255° West 450 518 31,000 2,231 Climbing New York Center
04:08PM 40.7253 -75.9436 254° West 450 518 33,300 1,488 Climbing New York Center
04:09PM 40.6958 -76.0947 256° West 445 512 34,000 347 Climbing New York Center
04:10PM 40.6761 -76.2492 260° West 445 512 34,000  Level New York Center
04:11PM 40.6897 -76.4064 277° West 426 490 34,000  Level New York Center
04:12PM 40.7114 -76.5589 281° West 431 496 34,000  Level New York Center
04:13PM 40.7350 -76.7169 281° West 431 496 34,000  Level New York Center
04:14PM 40.7564 -76.8694 281° West 431 496 34,000  Level New York Center
04:15PM 40.7794 -77.0250 281° West 431 496 34,000  Level New York Center
04:16PM 40.8025 -77.1808 281° West 431 496 34,000  Level New York Center
04:17PM 40.8231 -77.3364 280° West 431 496 34,000  Level New York Center
04:19PM 40.8647 -77.6233 281° West 421 484 34,000  Level Cleveland Center
04:20PM 40.8875 -77.7789 281° West 432 497 34,000  Level Cleveland Center
04:21PM 40.9078 -77.9344 280° West 432 497 34,000  Level Cleveland Center
04:22PM 40.9322 -78.0875 282° West 432 497 34,000  Level Cleveland Center
04:23PM 40.9583 -78.2433 283° West 427 491 34,000  Level Cleveland Center
04:24PM 40.9844 -78.3964 283° West 427 491 34,000  Level Cleveland Center
04:25PM 41.0081 -78.5497 282° West 427 491 34,000  Level Cleveland Center
04:26PM 41.0356 -78.7003 284° West 427 491 34,000  Level Cleveland Center
04:27PM 41.0589 -78.8539 281° West 432 497 34,000 -100 Level Cleveland Center
04:28PM 41.0819 -79.0075 281° West 432 497 33,800 -500 Descending Cleveland Center
04:29PM 41.1069 -79.1611 282° West 427 491 33,000 -400 Descending Cleveland Center
04:30PM 41.1317 -79.3206 282° West 432 497 33,000  Level Cleveland Center
04:31PM 41.1561 -79.4744 282° West 432 497 33,000  Level Cleveland Center
04:32PM 41.1783 -79.6258 281° West 432 497 33,000  Level Cleveland Center
04:33PM 41.2006 -79.7883 280° West 437 503 33,000 -150 Level Cleveland Center
04:34PM 41.2244 -79.9428 282° West 437 503 32,700 -1,650 Descending Cleveland Center
04:35PM 41.2503 -80.0972 283° West 431 496 29,700 -2,700 Descending Cleveland Center
04:36PM 41.2717 -80.2517 280° West 431 496 27,300 -2,300 Descending Cleveland Center
04:37PM 41.2928 -80.4061 280° West 431 496 25,100 -2,500 Descending Cleveland Center
04:38PM 41.3139 -80.5528 281° West 418 481 22,300 -3,100 Descending Cleveland Center
04:39PM 41.3408 -80.7019 284° West 411 473 18,900 -3,250 Descending Cleveland Center
04:40PM 41.3928 -80.8350 298° West 411 473 15,800 -3,314 Descending Cleveland Center
04:40PM 41.4342 -80.9458 297° West 413 475 13,100 -3,300 Descending Cleveland Center
04:41PM 41.4444 -80.9736 296° West 411 473 12,500 -2,548 Descending Cleveland Center
04:42PM 41.4897 -81.0986 296° West 401 461 10,000 -1,261 Descending Cleveland Center
04:43PM 41.5017 -81.2181 278° West 314 361 10,000  Level Cleveland Center
04:44PM 41.4739 -81.3203 250° West 317 365 10,000  Level Cleveland Center
04:45PM 41.4439 -81.4308 250° West 316 364 10,000  Level Cleveland Center
04:46PM 41.4286 -81.5358 259° West 304 350 10,000 -667 Level Cleveland Center
04:47PM 41.4067 -81.6600 257° West 306 352 8,600 -1,359 Descending Cleveland Center
04:48PM 41.3683 -81.7342 235° Southwest 265 305 7,100 -1,700 Descending Cleveland Center
04:49PM 41.3175 -81.8189 231° Southwest 272 313 5,200 -1,785 Descending Cleveland Center
04:50PM 41.2792 -81.8844 232° Southwest 257 296 3,500 -968 Descending Cleveland Center
04:51PM 41.2950 -81.9733 283° West 214 246 3,200 -269 Descending Cleveland Center

Login

Don't have an account? Register now (free) for customized features, flight alerts, and more!